Αρχική σελίδα
METAR-TAF:

METAR-TAF

Αεροδρόμια :

Foz do Iguaçu, Παρανά, Βραζιλία

γεωγραφικό πλάτος: 25-31S, γεωγραφικό μήκος: 054-35W, υψόμετρο: 180 μ

Παρών καιρός

Η αναφορά έγινε 1 ώρα και 9 λεπτά πριν, στις 04:00 UTC
Άνεμος 3 kt από Β/BA
Θερμοκρασία 26°C
Υγρασία 70%
Πίεση 1008 hPa
Ορατότητα 10 χλμ και άνω
Δεν υπάρχουν νέφη με βάση κάτω από τα 1500 μ. και δεν υπάρχουν νέφη σωρειτομελανίτες.

METAR: SBFI 230400Z 03003KT CAVOK 26/20 Q1008

Χρόνος: 02:09 (05:09 UTC)

Πρόγνωση Καιρού

Η αναφορά έγινε 6 ώρες και 54 λεπτά πριν, στις 22:15 UTC
Η πρόγνωση ισχύει από τις 23 στις 00 UTC έως τις 23 στις 24 UTC
Άνεμος 7 kt από BA
Ορατότητα 10 χλμ και άνω
Δεν υπάρχουν νέφη με βάση κάτω από τα 1500 μ. και δεν υπάρχουν νέφη σωρειτομελανίτες.

TAF: SBFI 222215Z 2300/2324 05007KT CAVOK TN22/2308Z TX34/2318Z RMK PC X

Μετεωρολογικές αναφορές και προγνώσεις για περισσότερα από 4000 αεροδρόμια (δελτία METAR και TAF).

Οι διαθέσιμοι σταθμοί απεικονίζονται στο χάρτη με κίτρινες και κόκκινες κουκκίδες.

Μετακινήστε το ποντίκι πάνω από τις κουκκίδες για να δείτε το όνομα του σταθμού.

Στη συνέχεια, κάντε κλικ για να δείτε τις μετεωρολογικές αναφορές και τις προγνώσεις καιρού.

Για να αλλάξετε το χάρτη: κάντε κλικ στα πράσινα κουμπιά με τον μαύρο σταυρό για να ζουμάρετε, στο πράσινο κουμπί με την παύλα για να αφαιρέσετε το ζουμ ή στα πράσινα βέλη για να αντιπαραβάλλετε χάρτες.


METAR-TAF: